createdAt,value
2023-02-22T00:02:14.282Z,59.50
2023-02-22T00:04:42.095Z,59.61
2023-02-22T00:07:10.014Z,59.64
2023-02-22T00:09:37.782Z,59.57
2023-02-22T00:12:05.741Z,59.72
2023-02-22T00:14:33.813Z,59.67
2023-02-22T00:17:02.634Z,59.82
2023-02-22T00:19:31.300Z,59.72
2023-02-22T00:22:00.308Z,59.73
2023-02-22T00:24:29.628Z,59.85
2023-02-22T00:27:15.669Z,59.93
2023-02-22T00:29:47.321Z,59.84
2023-02-22T00:32:15.857Z,59.86
2023-02-22T00:34:43.872Z,60.02
2023-02-22T00:37:11.845Z,60.04
2023-02-22T00:39:40.526Z,60.02
2023-02-22T00:42:09.621Z,60.07
2023-02-22T00:44:37.490Z,60.09
2023-02-22T00:47:05.436Z,60.18
2023-02-22T00:49:33.319Z,60.02
2023-02-22T00:52:01.906Z,59.89
2023-02-22T00:54:29.771Z,60.27
2023-02-22T00:56:58.363Z,60.27
2023-02-22T00:59:27.473Z,60.21
2023-02-22T01:01:55.255Z,60.20
2023-02-22T01:04:23.280Z,60.45
2023-02-22T01:06:52.071Z,60.25
2023-02-22T01:09:21.712Z,60.39
2023-02-22T01:11:55.499Z,60.39
2023-02-22T01:14:28.159Z,60.47
2023-02-22T01:16:57.246Z,60.43
2023-02-22T01:19:25.634Z,60.43
2023-02-22T01:21:54.766Z,60.51
2023-02-22T01:24:22.588Z,60.46
2023-02-22T01:26:52.605Z,60.42
2023-02-22T01:29:21.351Z,60.40
2023-02-22T01:31:54.951Z,60.29
2023-02-22T01:34:24.322Z,60.47
2023-02-22T01:36:52.162Z,60.61
2023-02-22T01:39:20.130Z,60.53
2023-02-22T01:41:47.988Z,60.74
2023-02-22T01:44:22.802Z,60.64
2023-02-22T01:46:50.684Z,60.82
2023-02-22T01:49:19.530Z,60.73
2023-02-22T01:51:52.688Z,60.68
2023-02-22T01:54:45.728Z,60.77
2023-02-22T01:57:21.366Z,60.74
2023-02-22T01:59:53.942Z,60.86
2023-02-22T02:02:22.532Z,60.85
2023-02-22T02:04:50.445Z,60.68
2023-02-22T02:07:21.572Z,61.01
2023-02-22T02:09:58.318Z,61.01
2023-02-22T02:12:29.280Z,60.97
2023-02-22T02:15:29.069Z,60.97
2023-02-22T02:18:07.423Z,61.05
2023-02-22T02:20:40.467Z,61.07
2023-02-22T02:23:32.491Z,61.15
2023-02-22T02:26:21.844Z,61.37
2023-02-22T02:29:04.633Z,61.07
2023-02-22T02:31:50.640Z,61.20
2023-02-22T02:34:40.334Z,61.19
2023-02-22T02:37:36.066Z,61.45
2023-02-22T02:40:17.888Z,61.36
2023-02-22T02:43:05.285Z,61.53
2023-02-22T02:45:48.392Z,61.44
2023-02-22T02:48:21.506Z,61.62
2023-02-22T02:50:50.587Z,61.66
2023-02-22T02:53:25.459Z,61.61
2023-02-22T02:55:54.103Z,61.52
2023-02-22T02:58:23.776Z,61.69
2023-02-22T03:01:01.542Z,61.79
2023-02-22T03:03:51.829Z,61.85
2023-02-22T03:06:32.659Z,61.78
2023-02-22T03:09:31.019Z,61.77
2023-02-22T03:12:14.051Z,61.70
2023-02-22T03:15:02.963Z,61.63
2023-02-22T03:17:48.274Z,61.73
2023-02-22T03:20:31.687Z,61.60
2023-02-22T03:23:07.473Z,61.78
2023-02-22T03:25:43.456Z,61.85
2023-02-22T03:28:15.262Z,62.01
2023-02-22T03:30:49.237Z,61.69
2023-02-22T03:33:33.721Z,61.70
2023-02-22T03:36:09.598Z,61.76
2023-02-22T03:38:40.364Z,61.88
2023-02-22T03:41:10.817Z,61.91
2023-02-22T03:43:43.125Z,61.92
2023-02-22T03:46:12.917Z,61.86
2023-02-22T03:48:44.270Z,62.03
2023-02-22T03:51:16.776Z,61.96
2023-02-22T03:53:44.962Z,61.97
2023-02-22T03:56:20.583Z,62.19
2023-02-22T03:58:49.918Z,62.16
2023-02-22T04:01:19.968Z,62.00
2023-02-22T04:03:47.835Z,62.13
2023-02-22T04:06:16.170Z,62.20
2023-02-22T04:08:44.340Z,62.35
2023-02-22T04:11:12.518Z,62.15
2023-02-22T04:13:40.378Z,62.70
2023-02-22T04:16:09.062Z,62.53
2023-02-22T04:18:37.183Z,62.63
2023-02-22T04:21:05.618Z,62.65
2023-02-22T04:23:33.483Z,62.52
2023-02-22T04:26:01.452Z,62.52
2023-02-22T04:28:29.211Z,62.58
2023-02-22T04:30:57.463Z,62.46
2023-02-22T04:33:25.492Z,62.59
2023-02-22T04:35:53.252Z,62.69
2023-02-22T04:38:21.399Z,62.69
2023-02-22T04:40:49.260Z,62.67
2023-02-22T04:43:17.011Z,62.96
2023-02-22T04:45:45.708Z,62.65
2023-02-22T04:48:14.187Z,62.92
2023-02-22T04:50:42.365Z,62.80
2023-02-22T04:53:11.151Z,62.58
2023-02-22T04:55:39.223Z,62.55
2023-02-22T04:58:09.510Z,62.77
2023-02-22T05:00:37.424Z,62.53
2023-02-22T05:03:05.425Z,62.72
2023-02-22T05:05:33.305Z,62.81
2023-02-22T05:08:01.217Z,62.73
2023-02-22T05:10:29.682Z,62.77
2023-02-22T05:12:57.465Z,62.93
2023-02-22T05:15:25.714Z,62.72
2023-02-22T05:17:54.132Z,62.63
2023-02-22T05:20:28.797Z,62.78
2023-02-22T05:22:57.936Z,63.03
2023-02-22T05:25:27.873Z,62.79
2023-02-22T05:27:59.276Z,62.84
2023-02-22T05:30:31.401Z,62.99
2023-02-22T05:33:00.159Z,63.07
2023-02-22T05:35:29.346Z,63.06
2023-02-22T05:37:58.656Z,62.98
2023-02-22T05:40:27.743Z,62.99
2023-02-22T05:42:57.182Z,62.92
2023-02-22T05:45:27.439Z,62.91
2023-02-22T05:47:55.743Z,62.94
2023-02-22T05:50:24.843Z,63.01
2023-02-22T05:52:53.519Z,63.14
2023-02-22T05:55:23.734Z,63.25
2023-02-22T05:57:52.626Z,63.36
2023-02-22T06:00:23.937Z,63.42
2023-02-22T06:03:00.037Z,63.24
2023-02-22T06:05:30.124Z,63.33
2023-02-22T06:07:58.634Z,63.32
2023-02-22T06:10:27.515Z,63.39
2023-02-22T06:12:56.714Z,63.45
2023-02-22T06:15:26.981Z,63.33
2023-02-22T06:17:57.909Z,63.45
2023-02-22T06:20:28.186Z,63.27
2023-02-22T06:22:58.649Z,63.47
2023-02-22T06:25:31.319Z,63.50
2023-02-22T06:28:00.510Z,63.35
2023-02-22T06:30:29.666Z,63.51
2023-02-22T06:32:57.758Z,63.41
2023-02-22T06:35:26.608Z,63.38
2023-02-22T06:37:54.477Z,63.58
2023-02-22T06:40:22.358Z,63.63
2023-02-22T06:42:50.547Z,63.60
2023-02-22T06:45:18.696Z,63.67
2023-02-22T06:47:47.472Z,63.59
2023-02-22T06:50:30.131Z,63.46
2023-02-22T06:52:59.333Z,63.53
2023-02-22T06:55:32.518Z,63.65
2023-02-22T06:58:02.160Z,63.73
2023-02-22T07:00:32.342Z,63.70
2023-02-22T07:03:01.074Z,63.84
2023-02-22T07:05:29.312Z,63.83
2023-02-22T07:08:04.538Z,63.84
2023-02-22T07:10:34.542Z,63.66
2023-02-22T07:13:03.678Z,63.60
2023-02-22T07:15:33.067Z,63.73
2023-02-22T07:18:01.932Z,63.48
2023-02-22T07:20:32.186Z,63.47
2023-02-22T07:23:01.460Z,63.42
2023-02-22T07:25:29.342Z,63.35
2023-02-22T07:27:57.764Z,63.32
2023-02-22T07:30:31.749Z,63.11
2023-02-22T07:33:06.042Z,63.11
2023-02-22T07:35:49.392Z,63.28
2023-02-22T07:38:19.505Z,63.38
2023-02-22T07:40:47.390Z,63.21
2023-02-22T07:43:16.985Z,63.27
2023-02-22T07:45:46.512Z,62.93
2023-02-22T07:48:17.572Z,62.98
2023-02-22T07:50:46.241Z,62.89
2023-02-22T07:53:18.140Z,62.42
2023-02-22T07:55:46.537Z,62.33
2023-02-22T07:58:16.145Z,62.55
2023-02-22T08:00:44.675Z,61.98
2023-02-22T08:03:13.759Z,62.03
2023-02-22T08:05:45.813Z,62.03
2023-02-22T08:08:19.732Z,62.54
2023-02-22T08:10:50.272Z,62.51
2023-02-22T08:13:19.347Z,62.75
2023-02-22T08:15:50.147Z,62.65
2023-02-22T08:18:20.487Z,61.94
2023-02-22T08:20:50.555Z,62.23
2023-02-22T08:23:20.326Z,62.37
2023-02-22T08:25:48.779Z,62.46
2023-02-22T08:28:20.025Z,62.32
2023-02-22T08:30:47.971Z,62.09
2023-02-22T08:33:19.694Z,62.55
2023-02-22T08:35:52.173Z,62.42
2023-02-22T08:38:27.922Z,62.69
2023-02-22T08:40:56.663Z,62.75
2023-02-22T08:43:24.846Z,62.35
2023-02-22T08:45:54.446Z,62.42
2023-02-22T08:48:24.268Z,62.36
2023-02-22T08:50:52.151Z,61.99
2023-02-22T08:53:20.080Z,62.45
2023-02-22T08:55:47.944Z,62.43
2023-02-22T08:58:15.916Z,62.15
2023-02-22T09:00:45.119Z,62.19
2023-02-22T09:03:15.390Z,62.20
2023-02-22T09:05:44.695Z,62.20
2023-02-22T09:08:13.439Z,62.38
2023-02-22T09:10:41.623Z,62.31
2023-02-22T09:13:09.564Z,62.30
2023-02-22T09:15:39.723Z,62.37
2023-02-22T09:18:09.937Z,62.58
2023-02-22T09:20:38.295Z,62.52
2023-02-22T09:23:07.184Z,62.44
2023-02-22T09:25:35.894Z,62.52
2023-02-22T09:28:04.462Z,62.56
2023-02-22T09:30:35.424Z,62.57
2023-02-22T09:33:05.817Z,62.48
2023-02-22T09:35:36.538Z,62.67
2023-02-22T09:38:08.769Z,62.69
2023-02-22T09:40:45.062Z,62.47
2023-02-22T09:43:25.141Z,62.39
2023-02-22T09:46:19.527Z,62.22
2023-02-22T09:49:00.510Z,62.44
2023-02-22T09:51:58.957Z,62.22
2023-02-22T09:54:35.691Z,61.55
2023-02-22T09:57:16.348Z,61.94
2023-02-22T09:59:54.091Z,62.32
2023-02-22T10:02:32.441Z,62.21
2023-02-22T10:05:21.149Z,62.11
2023-02-22T10:07:58.444Z,62.07
2023-02-22T10:10:33.688Z,61.61
2023-02-22T10:13:24.512Z,61.93
2023-02-22T10:15:58.516Z,61.83
2023-02-22T10:18:51.570Z,62.00
2023-02-22T10:21:57.731Z,62.10
2023-02-22T10:24:47.768Z,61.97
2023-02-22T10:27:29.334Z,61.76
2023-02-22T10:30:24.575Z,61.91
2023-02-22T10:33:01.427Z,61.89
2023-02-22T10:35:38.685Z,61.86
2023-02-22T10:38:20.836Z,61.73
2023-02-22T10:41:24.102Z,61.78
2023-02-22T10:43:51.969Z,61.68
2023-02-22T10:46:22.867Z,61.46
2023-02-22T10:48:54.680Z,61.24
2023-02-22T10:51:22.800Z,61.70
2023-02-22T10:53:59.541Z,61.68
2023-02-22T10:56:28.685Z,61.31
2023-02-22T10:59:00.611Z,60.92
2023-02-22T11:01:31.426Z,61.21
2023-02-22T11:04:04.746Z,61.28
2023-02-22T11:06:34.938Z,61.16
2023-02-22T11:09:13.301Z,60.93
2023-02-22T11:11:44.139Z,60.80
2023-02-22T11:14:24.531Z,60.70
2023-02-22T11:16:58.564Z,60.63
2023-02-22T11:19:32.923Z,61.03
2023-02-22T11:22:19.185Z,61.02
2023-02-22T11:24:58.281Z,60.79
2023-02-22T11:27:54.263Z,59.11
2023-02-22T11:30:29.330Z,60.61
2023-02-22T11:33:12.682Z,60.43
2023-02-22T11:35:52.839Z,60.65
2023-02-22T11:38:32.779Z,60.99
2023-02-22T11:41:15.288Z,60.81
2023-02-22T11:43:48.747Z,60.21
2023-02-22T11:46:31.755Z,59.56
2023-02-22T11:49:05.311Z,60.26
2023-02-22T11:51:47.441Z,60.22
2023-02-22T11:54:25.497Z,58.98
2023-02-22T11:57:16.769Z,59.48
2023-02-22T12:00:06.769Z,59.67
2023-02-22T12:03:03.397Z,59.90
2023-02-22T12:05:42.740Z,58.41
2023-02-22T12:08:33.460Z,58.69
2023-02-22T12:11:20.550Z,57.73
2023-02-22T12:14:05.730Z,58.03
2023-02-22T12:17:07.484Z,58.36
2023-02-22T12:20:01.765Z,58.12
2023-02-22T12:22:34.707Z,58.29
2023-02-22T12:25:10.124Z,57.73
2023-02-22T12:27:53.147Z,57.14
2023-02-22T12:30:32.920Z,56.97
2023-02-22T12:33:06.428Z,56.99
2023-02-22T12:35:39.315Z,56.70
2023-02-22T12:38:23.617Z,57.18
2023-02-22T12:41:04.132Z,58.48
2023-02-22T12:43:39.134Z,58.19
2023-02-22T12:46:11.929Z,58.65
2023-02-22T12:48:54.842Z,57.87
2023-02-22T12:51:32.344Z,57.00
2023-02-22T12:54:21.991Z,55.80
2023-02-22T12:56:55.865Z,55.90
2023-02-22T12:59:39.011Z,57.04
2023-02-22T13:02:21.602Z,56.48
2023-02-22T13:04:50.407Z,56.37
2023-02-22T13:07:33.314Z,56.43
2023-02-22T13:10:32.411Z,55.96
2023-02-22T13:13:04.988Z,56.38
2023-02-22T13:15:51.940Z,56.62
2023-02-22T13:18:47.874Z,56.69
2023-02-22T13:21:20.964Z,56.22
2023-02-22T13:24:12.783Z,56.02
2023-02-22T13:26:51.505Z,56.45
2023-02-22T13:29:28.765Z,56.63
2023-02-22T13:32:25.778Z,56.55
2023-02-22T13:35:06.430Z,57.08
2023-02-22T13:38:14.890Z,56.02
2023-02-22T13:40:55.329Z,55.54
2023-02-22T13:43:41.534Z,55.63
2023-02-22T13:46:47.957Z,56.31
2023-02-22T13:49:19.822Z,55.75
2023-02-22T13:51:59.112Z,56.19
2023-02-22T13:54:30.042Z,55.56
2023-02-22T13:56:58.402Z,55.51
2023-02-22T13:59:39.564Z,55.97
2023-02-22T14:02:35.832Z,56.10
2023-02-22T14:05:45.268Z,56.12
2023-02-22T14:08:18.912Z,56.37
2023-02-22T14:10:49.590Z,56.40
2023-02-22T14:13:23.128Z,56.36
2023-02-22T14:16:00.417Z,56.37
2023-02-22T14:18:41.974Z,55.70
2023-02-22T14:21:13.563Z,56.09
2023-02-22T14:23:51.310Z,56.24
2023-02-22T14:26:37.789Z,56.16
2023-02-22T14:29:05.577Z,56.00
2023-02-22T14:31:55.452Z,55.84
2023-02-22T14:34:43.186Z,55.54
2023-02-22T14:37:17.555Z,55.55
2023-02-22T14:39:51.240Z,56.20
2023-02-22T14:42:38.410Z,55.89
2023-02-22T14:45:09.674Z,55.91
2023-02-22T14:48:04.167Z,56.18
2023-02-22T14:50:41.269Z,56.00
2023-02-22T14:53:41.595Z,55.58
2023-02-22T14:56:18.333Z,55.88
2023-02-22T14:59:11.501Z,55.72
2023-02-22T15:01:58.407Z,56.04
2023-02-22T15:04:33.913Z,55.82
2023-02-22T15:07:27.907Z,55.87
2023-02-22T15:10:39.116Z,55.83
2023-02-22T15:13:16.398Z,55.88
2023-02-22T15:15:49.295Z,55.83
2023-02-22T15:18:18.596Z,55.26
2023-02-22T15:20:49.526Z,55.35
2023-02-22T15:23:18.156Z,55.10
2023-02-22T15:25:50.182Z,55.21
2023-02-22T15:28:19.040Z,55.33
2023-02-22T15:30:48.160Z,55.16
2023-02-22T15:33:24.796Z,55.44
2023-02-22T15:35:57.213Z,55.40
2023-02-22T15:38:31.536Z,55.32
2023-02-22T15:41:05.617Z,55.39
2023-02-22T15:43:34.687Z,55.57
2023-02-22T15:46:03.446Z,55.56
2023-02-22T15:48:33.333Z,55.87
2023-02-22T15:51:10.639Z,55.87
2023-02-22T15:53:42.177Z,55.72
2023-02-22T15:56:40.446Z,55.82
2023-02-22T15:59:20.872Z,55.80
2023-02-22T16:01:54.365Z,55.76
2023-02-22T16:04:25.572Z,55.81
2023-02-22T16:07:17.148Z,55.92
